Boynton Beach, FL (33437)

10:11 PM EST on February 27, 2015 (GMT -0500)
Valencia Pointe | Change Station
CLOSE
Current Station
Personal Weather Station
Location: Boynton Beach, FL
Elevation: 33 ft
Nearby Weather Stations

Elev 33 ft 26.51 °N, 80.16 °W | Updated 4 seconds ago

Overcast
Overcast
68.9 °F
Feels Like 68.9 °F
N
5.0
Wind Variable Wind from NE

Today
High -- | Low -- °F
--% Chance of Precip.
Yesterday
High -- | Low -- °F
Precip. -- in
6:46 AM 6:20 PM
Waxing Gibbous, 74% visible
Pressure 30.18 in
Visibility 6.0 miles
Clouds Mostly Cloudy 800 ft
Mostly Cloudy 1400 ft
Overcast 2100 ft
Dew Point 68 °F
Humidity 97%
Rainfall 0.27 in
Snow Depth Not available.
UV 0 out of 12
Pollen 9.30 out of 12
Air Quality Not available.
Flu Activity Not available.
METAR KPBI 280253Z 05011KT 6SM -RA BR BKN008 BKN014 OVC021 21/21 A3018 RMK AO2 SLP220 P0003 60003 T02110206 51017

More Conditions Fewer Conditions

Pressure 30.18 in
Visibility 6.0 miles
Clouds Mostly Cloudy 800 ft
Mostly Cloudy 1400 ft
Overcast 2100 ft
Dew Point 68 °F
Humidity 97%
Rainfall 0.27 in
Snow Depth Not available.
UV 0 out of 12
Pollen 9.30 out of 12
Air Quality Not available.
Flu Activity Not available.
METAR KPBI 280253Z 05011KT 6SM -RA BR BKN008 BKN014 OVC021 21/21 A3018 RMK AO2 SLP220 P0003 60003 T02110206 51017

More Conditions Fewer Conditions

10-Day Weather Forecast

Almanac

Astronomy

Feb. 27, 2015 Rise Set
Actual Time
Civil Twilight
Nautical Twilight
Astronomical Twilight
Moon
Length of Visible Light
Length of Day
Tomorrow will be .
, % of the Moon is Illuminated

Today's Extremes

State Highs State Lows

Community

WunderPhotos

Upload Photos

1,800,951 photos uploaded!

WunderBlogs® & News

Nearby

Air Quality

  Air Quality AQ Index Pollutant
Not available.

Snow Depth

Station Depth Elevation

Earthquake Activity

City Distance Mag. Time & Date
Minimum magnitude displayed is 2.5.

Coastal Water Temperatures

Place Temperature

Nearby Weather Stations